Time;durP1;ratioP1;P1;durP2;ratioP2;P2;SDS_P1;SDS_P2;PMS_P1;PMS_P2;Temp;Humidity;BMP_temperature;BMP_pressure;BME280_temperature;BME280_humidity;BME280_pressure;Samples;Min_cycle;Max_cycle;Signal;HPM_P1;HPM_P2
2023/08/21 00:00:30;;;;;;;4.65;1.63;;;24.10;56.20;;;;;;4993578;28;20053;-46
2023/08/21 00:02:57;;;;;;;2.75;1.17;;;24.00;56.40;;;;;;4991300;28;20039;-50
2023/08/21 00:05:24;;;;;;;3.42;1.23;;;24.00;56.40;;;;;;4990874;28;20559;-49
2023/08/21 00:07:53;;;;;;;2.20;1.33;;;23.90;56.60;;;;;;4988672;28;20042;-46
2023/08/21 00:10:22;;;;;;;3.88;1.13;;;23.90;56.70;;;;;;4988862;28;20070;-47
2023/08/21 00:12:52;;;;;;;3.35;1.23;;;23.80;56.60;;;;;;4991042;28;20085;-50
2023/08/21 00:15:21;;;;;;;1.75;1.17;;;23.80;56.70;;;;;;4992101;28;20088;-49
2023/08/21 00:17:47;;;;;;;2.78;1.35;;;23.80;56.90;;;;;;4991232;28;20556;-47
2023/08/21 00:20:14;;;;;;;2.28;1.20;;;23.70;56.90;;;;;;4991852;28;20088;-46
2023/08/21 00:22:43;;;;;;;2.25;1.55;;;23.70;57.10;;;;;;4990444;28;20134;-48
2023/08/21 00:25:10;;;;;;;3.63;1.40;;;23.70;57.30;;;;;;4992174;28;20117;-47
2023/08/21 00:27:38;;;;;;;2.38;1.23;;;23.60;57.30;;;;;;4988384;28;20070;-49
2023/08/21 00:30:05;;;;;;;1.17;1.13;;;23.60;57.50;;;;;;4972976;28;20504;-47
2023/08/21 00:32:36;;;;;;;2.92;1.40;;;23.60;57.60;;;;;;4990914;28;20417;-47
2023/08/21 00:35:08;;;;;;;2.55;1.10;;;23.50;57.80;;;;;;4991251;28;20514;-47
2023/08/21 00:37:34;;;;;;;2.92;1.27;;;23.50;57.70;;;;;;4988789;28;20113;-47
2023/08/21 00:40:03;;;;;;;2.97;1.95;;;23.50;57.90;;;;;;4990976;28;20716;-49
2023/08/21 00:42:29;;;;;;;2.33;1.27;;;23.40;58.00;;;;;;4990054;28;20085;-46
2023/08/21 00:44:57;;;;;;;3.45;1.45;;;23.40;58.10;;;;;;4990652;28;20485;-48
2023/08/21 00:47:27;;;;;;;2.22;1.02;;;23.40;58.20;;;;;;4989947;28;20050;-46
2023/08/21 00:49:55;;;;;;;3.40;1.42;;;23.40;58.10;;;;;;4992640;28;20042;-47
2023/08/21 00:52:34;;;;;;;1.65;1.30;;;23.40;58.20;;;;;;4990715;28;20070;-47
2023/08/21 00:55:05;;;;;;;3.95;1.60;;;23.40;58.30;;;;;;4991127;28;20038;-47
2023/08/21 00:57:35;;;;;;;2.10;1.35;;;23.40;58.30;;;;;;4983658;28;20082;-50
2023/08/21 01:00:04;;;;;;;3.25;1.27;;;23.30;58.30;;;;;;4989509;28;20034;-46
2023/08/21 01:02:31;;;;;;;3.63;1.20;;;23.40;58.40;;;;;;4989885;28;20048;-47
2023/08/21 01:04:58;;;;;;;4.00;1.20;;;23.30;58.40;;;;;;4989638;28;20129;-50
2023/08/21 01:07:27;;;;;;;2.67;1.23;;;23.30;58.30;;;;;;4984980;28;20564;-46
2023/08/21 01:10:09;;;;;;;1.67;1.25;;;23.30;58.30;;;;;;4990391;28;20096;-49
2023/08/21 01:13:01;;;;;;;3.17;1.20;;;23.30;58.70;;;;;;4987916;28;20051;-50
2023/08/21 01:15:33;;;;;;;2.72;1.63;;;23.30;58.50;;;;;;4990421;28;20070;-47
2023/08/21 01:18:00;;;;;;;3.53;1.88;;;23.20;58.30;;;;;;4988566;28;20039;-48
2023/08/21 01:20:31;;;;;;;2.73;1.33;;;23.20;58.30;;;;;;4968647;28;20093;-45
2023/08/21 01:23:04;;;;;;;2.78;1.23;;;23.20;58.40;;;;;;4989250;28;20046;-49
2023/08/21 01:25:32;;;;;;;2.65;1.20;;;23.10;58.80;;;;;;4989008;28;20690;-44
2023/08/21 01:28:01;;;;;;;1.38;1.27;;;23.00;58.40;;;;;;4987943;28;20125;-48
2023/08/21 01:30:32;;;;;;;1.38;1.10;;;23.00;58.60;;;;;;4982226;28;20104;-46
2023/08/21 01:33:06;;;;;;;1.63;1.20;;;23.00;58.80;;;;;;4989623;28;20038;-50
2023/08/21 01:35:35;;;;;;;2.22;1.27;;;23.00;58.90;;;;;;4975101;28;20129;-48
2023/08/21 01:38:03;;;;;;;6.18;1.45;;;22.90;58.60;;;;;;4986851;28;20034;-47
2023/08/21 01:40:31;;;;;;;2.47;1.10;;;22.90;58.60;;;;;;4990009;28;20046;-48
2023/08/21 01:43:04;;;;;;;2.42;0.88;;;22.90;58.80;;;;;;4988228;28;20034;-49
2023/08/21 01:45:31;;;;;;;3.23;1.17;;;22.80;58.80;;;;;;4989136;28;20061;-47
2023/08/21 01:48:01;;;;;;;1.05;0.90;;;22.80;58.70;;;;;;4988104;28;20038;-47
2023/08/21 01:50:29;;;;;;;2.72;1.17;;;22.70;58.80;;;;;;4973566;28;20057;-47
2023/08/21 01:52:56;;;;;;;1.77;1.10;;;22.70;58.90;;;;;;4988216;28;20050;-46
2023/08/21 01:55:22;;;;;;;3.85;1.33;;;22.70;59.10;;;;;;4984393;28;20149;-50
2023/08/21 01:57:51;;;;;;;1.00;1.00;;;22.70;59.30;;;;;;4988115;28;20042;-46
2023/08/21 02:00:21;;;;;;;4.65;1.17;;;22.60;59.20;;;;;;4982957;28;20042;-46
2023/08/21 02:02:48;;;;;;;2.25;1.27;;;22.60;59.30;;;;;;4989045;28;20104;-47
2023/08/21 02:05:14;;;;;;;1.80;1.30;;;22.60;59.30;;;;;;4988977;28;20104;-48
2023/08/21 02:07:46;;;;;;;3.20;1.17;;;22.60;60.00;;;;;;4986020;28;20054;-49
2023/08/21 02:10:15;;;;;;;3.88;1.00;;;22.50;59.40;;;;;;4984206;28;20117;-48
2023/08/21 02:12:43;;;;;;;1.98;1.05;;;22.50;59.40;;;;;;4989943;28;20051;-48
2023/08/21 02:15:11;;;;;;;1.40;1.30;;;22.50;59.50;;;;;;4988424;28;20039;-46
2023/08/21 02:17:39;;;;;;;2.15;1.17;;;22.40;59.40;;;;;;4988619;28;20046;-50
2023/08/21 02:20:14;;;;;;;2.60;1.27;;;22.40;59.60;;;;;;4969586;28;20472;-48
2023/08/21 02:22:41;;;;;;;2.60;1.45;;;22.30;59.60;;;;;;4987421;28;20532;-50
2023/08/21 02:25:12;;;;;;;5.17;2.00;;;22.30;59.70;;;;;;4990130;28;20409;-49
2023/08/21 02:27:40;;;;;;;3.25;1.17;;;22.30;59.70;;;;;;4981745;28;20055;-46
2023/08/21 02:30:09;;;;;;;2.97;0.80;;;22.30;59.80;;;;;;4987585;28;20046;-50
2023/08/21 02:32:40;;;;;;;1.77;1.10;;;22.30;59.70;;;;;;4988832;28;20455;-47
2023/08/21 02:35:10;;;;;;;2.40;1.77;;;22.30;59.90;;;;;;4972392;28;20094;-46
2023/08/21 02:37:38;;;;;;;3.92;0.90;;;22.20;59.60;;;;;;4988339;28;20046;-50
2023/08/21 02:40:08;;;;;;;1.25;0.93;;;22.20;59.90;;;;;;4989780;28;20067;-46
2023/08/21 02:42:36;;;;;;;1.02;0.93;;;22.20;60.10;;;;;;4988216;28;20113;-48
2023/08/21 02:45:09;;;;;;;1.92;1.35;;;22.10;59.90;;;;;;4993425;28;20109;-46
2023/08/21 02:47:37;;;;;;;1.85;1.40;;;22.10;60.20;;;;;;4972315;28;20062;-46
2023/08/21 02:50:09;;;;;;;3.03;1.23;;;22.10;60.10;;;;;;4975106;28;20067;-46
2023/08/21 02:52:37;;;;;;;2.22;1.00;;;22.10;60.60;;;;;;4991758;28;20046;-46
2023/08/21 02:55:08;;;;;;;1.77;1.27;;;22.10;60.40;;;;;;4974529;28;20038;-49
2023/08/21 02:57:35;;;;;;;2.83;1.55;;;22.00;61.10;;;;;;4993472;28;20102;-45
2023/08/21 03:00:05;;;;;;;2.05;0.98;;;22.00;60.40;;;;;;4987006;28;20467;-47
2023/08/21 03:02:32;;;;;;;2.95;1.60;;;22.00;60.50;;;;;;4992036;28;20145;-48
2023/08/21 03:05:00;;;;;;;2.22;1.00;;;22.00;60.40;;;;;;4973667;28;20497;-46
2023/08/21 03:07:29;;;;;;;1.40;1.17;;;22.00;60.40;;;;;;4990287;28;20066;-46
2023/08/21 03:09:56;;;;;;;2.03;1.58;;;22.00;60.50;;;;;;4976767;28;20081;-47
2023/08/21 03:12:23;;;;;;;3.38;1.42;;;21.90;60.50;;;;;;4992425;28;20477;-45
2023/08/21 03:14:53;;;;;;;1.63;0.95;;;21.90;60.50;;;;;;4993269;28;20046;-48
2023/08/21 03:17:20;;;;;;;2.85;1.10;;;21.90;60.60;;;;;;4974679;28;20046;-47
2023/08/21 03:19:48;;;;;;;2.42;1.40;;;21.90;60.70;;;;;;4958699;28;20089;-46
2023/08/21 03:22:17;;;;;;;2.55;1.88;;;21.90;60.70;;;;;;4974990;28;20050;-46
2023/08/21 03:24:45;;;;;;;3.08;0.98;;;21.80;60.60;;;;;;4975246;28;20097;-47
2023/08/21 03:27:14;;;;;;;2.78;1.38;;;21.80;60.60;;;;;;4975497;28;20050;-46
2023/08/21 03:29:48;;;;;;;4.07;1.27;;;21.90;60.70;;;;;;4971072;28;20038;-46
2023/08/21 03:32:20;;;;;;;3.65;1.90;;;21.80;60.60;;;;;;4974916;28;20141;-47
2023/08/21 03:34:47;;;;;;;4.43;2.03;;;21.80;60.80;;;;;;4990089;28;20703;-47
2023/08/21 03:37:14;;;;;;;1.20;0.98;;;21.80;60.70;;;;;;4990720;28;20046;-47
2023/08/21 03:39:43;;;;;;;2.92;1.33;;;21.80;60.80;;;;;;4996354;28;20038;-46
2023/08/21 03:42:10;;;;;;;2.22;1.20;;;21.80;60.90;;;;;;4990347;28;20038;-48
2023/08/21 03:44:41;;;;;;;2.25;0.95;;;21.80;61.00;;;;;;4973828;28;20042;-49
2023/08/21 03:47:08;;;;;;;1.17;0.95;;;21.80;61.00;;;;;;4987822;28;20050;-48
2023/08/21 03:49:48;;;;;;;3.75;1.33;;;21.80;61.60;;;;;;4990047;28;20074;-46
2023/08/21 03:52:17;;;;;;;2.10;0.95;;;21.70;60.70;;;;;;4974285;28;20050;-47
2023/08/21 03:54:49;;;;;;;2.25;1.13;;;21.70;60.70;;;;;;4985462;28;20047;-49
2023/08/21 03:57:17;;;;;;;1.95;1.50;;;21.70;60.90;;;;;;4974878;28;20039;-49
2023/08/21 03:59:44;;;;;;;2.10;0.80;;;21.60;60.70;;;;;;4988119;28;20038;-46
2023/08/21 04:02:13;;;;;;;1.85;1.40;;;21.60;61.00;;;;;;4979548;28;20455;-50
2023/08/21 04:04:40;;;;;;;2.17;0.98;;;21.60;61.30;;;;;;4973362;28;20042;-49
2023/08/21 04:07:07;;;;;;;3.67;1.33;;;21.60;61.00;;;;;;4968801;28;20501;-48
2023/08/21 04:09:34;;;;;;;1.90;0.80;;;21.60;61.20;;;;;;4970535;28;20089;-50
2023/08/21 04:12:00;;;;;;;1.00;0.80;;;21.50;61.40;;;;;;4988117;28;20053;-45
2023/08/21 04:14:31;;;;;;;1.55;0.80;;;21.50;61.50;;;;;;4990484;28;20556;-46
2023/08/21 04:16:58;;;;;;;1.13;0.98;;;21.50;61.50;;;;;;4990255;28;20630;-46
2023/08/21 04:19:29;;;;;;;1.23;0.95;;;21.50;61.60;;;;;;4989256;28;20074;-48
2023/08/21 04:21:56;;;;;;;2.00;1.10;;;21.50;61.70;;;;;;4993477;28;20161;-47
2023/08/21 04:24:23;;;;;;;2.50;1.10;;;21.50;61.70;;;;;;4968883;28;20046;-45
2023/08/21 04:26:52;;;;;;;4.18;1.15;;;21.50;61.70;;;;;;4990936;28;20120;-46
2023/08/21 04:29:18;;;;;;;2.47;0.90;;;21.50;61.80;;;;;;4968955;28;20046;-45
2023/08/21 04:31:45;;;;;;;1.17;0.80;;;21.50;61.90;;;;;;4989462;28;20085;-47
2023/08/21 04:34:12;;;;;;;3.25;1.15;;;21.50;62.00;;;;;;4989692;28;20125;-50
2023/08/21 04:36:39;;;;;;;1.90;1.30;;;21.50;62.00;;;;;;4989226;28;20039;-48
2023/08/21 04:39:06;;;;;;;3.35;1.20;;;21.40;62.10;;;;;;4967655;28;20059;-48
2023/08/21 04:41:33;;;;;;;2.22;0.90;;;21.40;62.10;;;;;;4984863;28;20466;-48
2023/08/21 04:44:00;;;;;;;2.63;1.15;;;21.40;62.00;;;;;;4992404;28;20043;-49
2023/08/21 04:46:27;;;;;;;1.25;0.90;;;21.40;62.10;;;;;;4972277;28;20046;-50
2023/08/21 04:48:54;;;;;;;1.45;1.13;;;21.50;62.20;;;;;;4969872;28;20038;-44
2023/08/21 04:51:21;;;;;;;1.65;0.95;;;21.50;62.30;;;;;;5000568;23;20025;-50
2023/08/21 04:53:48;;;;;;;2.92;1.00;;;21.40;62.30;;;;;;5010796;28;20046;-50
2023/08/21 04:56:20;;;;;;;2.83;1.05;;;21.40;63.00;;;;;;5012381;28;20468;-50
2023/08/21 04:58:47;;;;;;;4.07;1.67;;;21.40;62.30;;;;;;5011433;28;20077;-49
2023/08/21 05:01:15;;;;;;;4.13;1.45;;;21.50;62.30;;;;;;5012132;28;20450;-50
2023/08/21 05:03:45;;;;;;;3.15;1.88;;;21.40;62.40;;;;;;5028076;28;20132;-51
2023/08/21 05:06:12;;;;;;;2.78;1.20;;;21.40;62.40;;;;;;5011689;28;20048;-51
2023/08/21 05:08:39;;;;;;;1.92;1.20;;;21.40;62.40;;;;;;5029571;28;20041;-49
2023/08/21 05:11:07;;;;;;;1.80;1.05;;;21.40;62.50;;;;;;5004251;28;20056;-51
2023/08/21 05:13:36;;;;;;;1.50;1.23;;;21.40;62.50;;;;;;5012189;28;20535;-51
2023/08/21 05:16:05;;;;;;;3.17;1.30;;;21.40;62.50;;;;;;5011941;28;20128;-50
2023/08/21 05:18:36;;;;;;;2.42;1.20;;;21.40;62.50;;;;;;5011424;28;20046;-50
2023/08/21 05:21:04;;;;;;;2.42;1.23;;;21.40;62.60;;;;;;5007949;28;20095;-50
2023/08/21 05:23:30;;;;;;;3.25;1.10;;;21.50;62.60;;;;;;5027371;28;20041;-50
2023/08/21 05:26:04;;;;;;;2.42;1.23;;;21.50;62.70;;;;;;5009219;28;20050;-50
2023/08/21 05:28:31;;;;;;;2.03;1.73;;;21.50;62.80;;;;;;5009916;28;20077;-50
2023/08/21 05:30:58;;;;;;;4.38;1.50;;;21.50;63.00;;;;;;5007072;28;20045;-47
2023/08/21 05:33:29;;;;;;;2.05;1.60;;;21.50;63.10;;;;;;5027085;28;20530;-51
2023/08/21 05:35:57;;;;;;;3.10;1.40;;;21.50;63.10;;;;;;5010857;28;20049;-51
2023/08/21 05:38:25;;;;;;;1.38;1.10;;;21.60;63.40;;;;;;5010063;28;20049;-51
2023/08/21 05:40:51;;;;;;;3.17;1.30;;;21.60;63.60;;;;;;5030586;28;20052;-50
2023/08/21 05:43:18;;;;;;;1.45;0.90;;;21.60;63.80;;;;;;5010804;28;20049;-51
2023/08/21 05:45:45;;;;;;;3.30;1.35;;;21.70;63.90;;;;;;5026727;28;20050;-50
2023/08/21 05:48:12;;;;;;;1.90;1.42;;;21.70;64.00;;;;;;5006400;28;20137;-51
2023/08/21 05:50:39;;;;;;;2.10;1.13;;;21.70;64.00;;;;;;5027021;28;20633;-51
2023/08/21 05:53:06;;;;;;;1.30;1.20;;;21.70;63.90;;;;;;5026914;28;20050;-49
2023/08/21 05:55:33;;;;;;;2.28;0.85;;;21.80;64.20;;;;;;5008272;28;20080;-51
2023/08/21 05:58:00;;;;;;;3.50;1.13;;;21.80;64.20;;;;;;5023287;28;20125;-51
2023/08/21 06:00:29;;;;;;;3.00;1.48;;;21.90;64.40;;;;;;5004792;28;20514;-49
2023/08/21 06:03:00;;;;;;;3.65;1.67;;;21.90;64.50;;;;;;5028080;28;21324;-49
2023/08/21 06:05:46;;;;;;;5.95;1.90;;;21.90;63.80;;;;;;5008465;28;20042;-51
2023/08/21 06:08:13;;;;;;;2.60;1.45;;;21.90;63.60;;;;;;5022397;28;20561;-51
2023/08/21 06:10:40;;;;;;;5.97;2.50;;;22.00;63.60;;;;;;5009911;28;20053;-51
2023/08/21 06:13:08;;;;;;;4.80;1.48;;;22.00;63.40;;;;;;5010233;28;20037;-50
2023/08/21 06:15:34;;;;;;;3.97;2.55;;;22.10;63.40;;;;;;5007828;28;20056;-51
2023/08/21 06:18:04;;;;;;;5.95;2.45;;;22.10;63.30;;;;;;5011206;28;20037;-50
2023/08/21 06:20:30;;;;;;;3.95;2.95;;;22.10;62.80;;;;;;5032371;28;20060;-51
2023/08/21 06:22:57;;;;;;;4.13;2.05;;;22.20;62.80;;;;;;5031120;28;20103;-52
2023/08/21 06:25:24;;;;;;;3.08;2.20;;;22.20;62.60;;;;;;5011586;28;20052;-50
2023/08/21 06:27:51;;;;;;;5.35;2.88;;;22.30;62.50;;;;;;5030310;28;20055;-51
2023/08/21 06:30:26;;;;;;;7.10;2.72;;;22.30;62.50;;;;;;5014446;28;20573;-49
2023/08/21 06:32:54;;;;;;;3.13;1.90;;;22.30;62.40;;;;;;5030583;28;20135;-52
2023/08/21 06:35:21;;;;;;;4.07;1.60;;;22.30;62.50;;;;;;5015246;28;20073;-49
2023/08/21 06:37:49;;;;;;;3.80;1.80;;;22.40;62.60;;;;;;5013578;28;20041;-51
2023/08/21 06:40:16;;;;;;;2.90;2.00;;;22.40;62.30;;;;;;5033605;28;20412;-50
2023/08/21 06:42:43;;;;;;;2.95;1.65;;;22.50;61.70;;;;;;5015805;28;20474;-50
2023/08/21 06:45:10;;;;;;;6.07;1.63;;;22.50;61.90;;;;;;5015544;28;20076;-51
2023/08/21 06:47:36;;;;;;;4.90;1.88;;;22.50;61.50;;;;;;5015900;28;20072;-52
2023/08/21 06:50:04;;;;;;;3.33;1.90;;;22.60;61.60;;;;;;5014874;28;20068;-51
2023/08/21 06:52:31;;;;;;;6.93;1.90;;;22.60;62.00;;;;;;5030748;28;20163;-51
2023/08/21 06:54:58;;;;;;;7.05;1.95;;;22.60;61.90;;;;;;5032055;28;20045;-51
2023/08/21 06:57:25;;;;;;;4.55;1.50;;;22.70;61.30;;;;;;5033636;28;20124;-51
2023/08/21 06:59:51;;;;;;;6.72;2.22;;;22.70;61.50;;;;;;5027730;28;20034;-50
2023/08/21 07:02:18;;;;;;;5.25;2.03;;;22.70;61.30;;;;;;5027249;28;20042;-50
2023/08/21 07:04:45;;;;;;;4.10;1.83;;;22.80;61.30;;;;;;5031644;28;20111;-50
2023/08/21 07:07:15;;;;;;;2.50;1.55;;;22.80;61.30;;;;;;5033308;28;20103;-50
2023/08/21 07:09:41;;;;;;;4.05;2.03;;;22.80;61.00;;;;;;5031255;28;20041;-51
2023/08/21 07:12:08;;;;;;;4.07;1.88;;;22.90;61.10;;;;;;5031642;28;20040;-51
2023/08/21 07:14:35;;;;;;;4.45;1.65;;;22.90;61.20;;;;;;5029169;28;20053;-50
2023/08/21 07:17:01;;;;;;;3.78;2.50;;;22.90;61.10;;;;;;5031871;28;20065;-50
2023/08/21 07:19:28;;;;;;;5.63;2.30;;;23.00;61.00;;;;;;5031222;28;20041;-48
2023/08/21 07:21:55;;;;;;;7.97;2.63;;;23.00;60.80;;;;;;5031583;28;20538;-50
2023/08/21 07:24:22;;;;;;;4.95;2.13;;;23.00;60.80;;;;;;5030548;28;20052;-47
2023/08/21 07:26:48;;;;;;;5.38;2.33;;;23.10;60.40;;;;;;5032940;28;20076;-50
2023/08/21 07:29:15;;;;;;;4.07;2.45;;;23.10;60.30;;;;;;5029856;28;20400;-48
2023/08/21 07:31:42;;;;;;;4.13;2.47;;;23.20;60.20;;;;;;5032193;28;20083;-51
2023/08/21 07:34:09;;;;;;;4.95;2.38;;;23.30;60.20;;;;;;5030705;28;20051;-50
2023/08/21 07:36:35;;;;;;;3.95;2.58;;;23.30;60.00;;;;;;5031662;28;20045;-51
2023/08/21 07:39:02;;;;;;;5.05;2.22;;;23.30;59.60;;;;;;5031050;28;20038;-51
2023/08/21 07:41:29;;;;;;;6.18;2.22;;;23.40;59.50;;;;;;5031919;28;20724;-50
2023/08/21 07:43:56;;;;;;;4.85;2.45;;;23.40;59.10;;;;;;5031370;28;20454;-49
2023/08/21 07:46:23;;;;;;;8.63;3.00;;;23.40;58.90;;;;;;5027500;28;20474;-50
2023/08/21 07:48:50;;;;;;;3.97;2.13;;;23.50;58.80;;;;;;5029976;28;20058;-51
2023/08/21 07:51:16;;;;;;;4.00;2.28;;;23.50;59.10;;;;;;5031152;28;20054;-51
2023/08/21 07:53:43;;;;;;;6.85;2.70;;;23.60;58.90;;;;;;5030439;28;20664;-50
2023/08/21 07:56:11;;;;;;;5.20;2.47;;;23.60;58.90;;;;;;5030963;28;20499;-51
2023/08/21 07:58:37;;;;;;;5.72;2.67;;;23.60;58.90;;;;;;5029314;28;20073;-51
2023/08/21 08:01:07;;;;;;;8.52;3.13;;;23.70;58.50;;;;;;5010925;28;20133;-51
2023/08/21 08:03:34;;;;;;;5.88;2.03;;;23.70;58.30;;;;;;5027315;28;20613;-50
2023/08/21 08:06:01;;;;;;;3.90;2.13;;;23.70;58.10;;;;;;5029801;28;20042;-51
2023/08/21 08:08:29;;;;;;;3.55;2.28;;;23.80;58.50;;;;;;5029667;28;20053;-51
2023/08/21 08:10:55;;;;;;;5.30;2.90;;;23.80;58.50;;;;;;5029199;28;20037;-51
2023/08/21 08:13:22;;;;;;;3.38;2.05;;;23.90;58.70;;;;;;5028862;28;20128;-51
2023/08/21 08:15:49;;;;;;;5.28;2.47;;;23.90;58.20;;;;;;5030156;28;20128;-52
2023/08/21 08:18:18;;;;;;;3.50;2.22;;;23.90;57.50;;;;;;5029325;28;20041;-51
2023/08/21 08:20:44;;;;;;;4.05;2.30;;;24.00;57.50;;;;;;5031187;28;20087;-51
2023/08/21 08:23:11;;;;;;;3.75;2.47;;;24.10;57.50;;;;;;5031616;28;20484;-51
2023/08/21 08:25:38;;;;;;;5.22;2.38;;;24.10;57.20;;;;;;5030749;28;20038;-51
2023/08/21 08:28:05;;;;;;;4.35;2.08;;;24.20;57.60;;;;;;5029925;28;20504;-51
2023/08/21 08:30:33;;;;;;;4.78;2.15;;;24.20;57.20;;;;;;5029026;28;20107;-50
2023/08/21 08:33:00;;;;;;;4.97;2.33;;;24.20;56.80;;;;;;5031676;28;20129;-51
2023/08/21 08:35:27;;;;;;;4.55;2.00;;;24.30;56.60;;;;;;5027877;28;20053;-50
2023/08/21 08:37:54;;;;;;;3.17;1.10;;;24.30;57.30;;;;;;5029035;28;20041;-51
2023/08/21 08:40:22;;;;;;;4.10;1.45;;;24.30;56.00;;;;;;5030368;28;20753;-51
2023/08/21 08:42:51;;;;;;;2.38;1.02;;;24.50;56.60;;;;;;5029934;28;20696;-51
2023/08/21 08:45:33;;;;;;;2.53;1.40;;;24.60;55.70;;;;;;5029296;28;20057;-49
2023/08/21 08:48:01;;;;;;;3.53;1.27;;;24.60;55.00;;;;;;5028720;28;20049;-51
2023/08/21 08:50:31;;;;;;;3.38;0.98;;;24.70;55.20;;;;;;5027548;28;20045;-51
2023/08/21 08:52:59;;;;;;;3.80;1.33;;;24.70;54.80;;;;;;5030684;28;20037;-50
2023/08/21 08:55:40;;;;;;;3.55;1.45;;;24.80;54.40;;;;;;5027622;28;20033;-51
2023/08/21 08:58:07;;;;;;;5.22;1.48;;;24.90;53.90;;;;;;5029476;28;20072;-50
2023/08/21 09:00:34;;;;;;;3.30;1.23;;;24.90;53.70;;;;;;5029281;28;20045;-47
2023/08/21 09:03:00;;;;;;;5.30;1.50;;;24.90;52.90;;;;;;5030069;28;20124;-49
2023/08/21 09:05:27;;;;;;;5.25;2.13;;;25.00;52.90;;;;;;5029983;28;20563;-51
2023/08/21 09:08:23;;;;;;;3.78;1.45;;;25.10;53.00;;;;;;5026017;28;20478;-51
2023/08/21 09:10:50;;;;;;;1.83;1.02;;;25.10;52.90;;;;;;5012734;28;20137;-50
2023/08/21 09:13:19;;;;;;;4.78;1.33;;;25.10;52.80;;;;;;5029959;28;20083;-51
2023/08/21 09:15:53;;;;;;;3.00;1.27;;;25.20;52.50;;;;;;5029305;28;20506;-50
2023/08/21 09:18:20;;;;;;;2.40;1.20;;;25.30;52.70;;;;;;5028000;28;20500;-50
2023/08/21 09:20:48;;;;;;;4.18;1.30;;;25.30;53.10;;;;;;5029315;28;20069;-50
2023/08/21 09:23:19;;;;;;;2.42;1.20;;;25.40;52.80;;;;;;5028839;28;20041;-51
2023/08/21 09:25:47;;;;;;;10.15;2.72;;;25.50;52.90;;;;;;5029262;28;20049;-51
2023/08/21 09:28:20;;;;;;;18.20;4.63;;;25.50;52.10;;;;;;5028701;28;20049;-51
2023/08/21 09:30:52;;;;;;;2.80;1.48;;;25.60;52.30;;;;;;5028451;28;20053;-50
2023/08/21 09:33:25;;;;;;;3.95;1.20;;;25.60;52.30;;;;;;5029547;28;20503;-51
2023/08/21 09:35:52;;;;;;;6.88;1.95;;;25.70;52.00;;;;;;5024406;28;20120;-51
2023/08/21 09:38:22;;;;;;;2.40;1.20;;;25.80;52.30;;;;;;5028603;28;20044;-51
2023/08/21 09:40:54;;;;;;;5.60;1.50;;;25.90;52.50;;;;;;5029532;28;20085;-51
2023/08/21 09:43:23;;;;;;;2.83;1.08;;;26.00;52.30;;;;;;5028630;28;20436;-50
2023/08/21 09:45:55;;;;;;;1.55;1.00;;;26.20;51.70;;;;;;5012017;28;20061;-51
2023/08/21 09:48:29;;;;;;;2.95;1.10;;;26.30;51.70;;;;;;5028416;28;20132;-51
2023/08/21 09:50:56;;;;;;;1.98;1.00;;;26.40;51.80;;;;;;5025541;28;20115;-50
2023/08/21 09:53:23;;;;;;;3.35;1.05;;;26.50;51.10;;;;;;5028056;28;20053;-51
2023/08/21 09:55:54;;;;;;;1.73;1.00;;;26.60;50.40;;;;;;5028906;28;20419;-52
2023/08/21 09:58:21;;;;;;;2.28;0.90;;;26.60;49.30;;;;;;5028388;28;20120;-57
2023/08/21 10:00:49;;;;;;;4.28;1.00;;;26.70;49.80;;;;;;5027379;28;20124;-58
2023/08/21 10:03:21;;;;;;;3.85;0.90;;;26.70;48.90;;;;;;5027535;28;20048;-59
2023/08/21 10:05:48;;;;;;;2.75;1.50;;;26.70;49.30;;;;;;5028533;28;20061;-56
2023/08/21 10:08:18;;;;;;;2.17;1.10;;;26.70;50.30;;;;;;5027532;28;20049;-53
2023/08/21 10:10:44;;;;;;;2.45;1.00;;;26.70;49.30;;;;;;5027187;28;20099;-57
2023/08/21 10:13:11;;;;;;;6.15;1.42;;;26.70;49.30;;;;;;5027883;28;20503;-56
2023/08/21 10:15:39;;;;;;;2.25;1.00;;;26.70;50.00;;;;;;5028170;28;20470;-57
2023/08/21 10:18:18;;;;;;;7.68;1.45;;;26.70;49.80;;;;;;5026318;28;20439;-55
2023/08/21 10:20:45;;;;;;;2.75;1.17;;;26.80;49.20;;;;;;5025888;28;20466;-57
2023/08/21 10:23:24;;;;;;;3.33;1.17;;;26.80;49.40;;;;;;5027917;28;20037;-56
2023/08/21 10:25:56;;;;;;;56.30;10.23;;;26.80;49.40;;;;;;5028014;28;20084;-55
2023/08/21 10:28:54;;;;;;;4.75;2.00;;;26.80;50.10;;;;;;5027820;28;20103;-57
2023/08/21 10:31:34;;;;;;;2.17;0.98;;;26.80;49.80;;;;;;5027030;28;20049;-58
2023/08/21 10:34:06;;;;;;;5.38;1.45;;;26.90;49.50;;;;;;5023791;28;20041;-56
2023/08/21 10:36:40;;;;;;;1.60;0.93;;;26.90;49.70;;;;;;5028328;28;20530;-59
2023/08/21 10:39:26;;;;;;;3.55;1.00;;;26.90;49.50;;;;;;5026795;28;20488;-58
2023/08/21 10:41:55;;;;;;;4.75;0.70;;;27.00;49.20;;;;;;5026016;28;20495;-58
2023/08/21 10:44:55;;;;;;;1.75;1.10;;;27.00;50.20;;;;;;5026281;28;20046;-55
2023/08/21 10:47:30;;;;;;;4.25;1.13;;;27.00;49.10;;;;;;5026335;28;20049;-60
2023/08/21 10:50:05;;;;;;;4.75;0.80;;;27.00;49.60;;;;;;5024679;28;20065;-59
2023/08/21 10:52:44;;;;;;;2.80;1.25;;;27.00;50.00;;;;;;5027173;28;20095;-58
2023/08/21 10:55:14;;;;;;;5.53;1.20;;;27.10;49.60;;;;;;5029061;28;20049;-59
2023/08/21 10:57:41;;;;;;;4.30;1.23;;;27.10;49.60;;;;;;5113136;23;20133;-53
2023/08/21 11:00:11;;;;;;;1.75;0.90;;;27.10;49.40;;;;;;5024206;28;20125;-51
2023/08/21 11:02:40;;;;;;;2.05;1.10;;;27.20;49.10;;;;;;5028366;28;20044;-53
2023/08/21 11:05:08;;;;;;;3.03;1.20;;;27.20;50.00;;;;;;5021833;28;20048;-54
2023/08/21 11:07:46;;;;;;;4.93;1.15;;;27.20;49.70;;;;;;5019037;28;20037;-54
2023/08/21 11:10:14;;;;;;;4.55;0.85;;;27.30;49.90;;;;;;5019806;28;20052;-54
2023/08/21 11:12:59;;;;;;;3.30;1.23;;;27.30;50.10;;;;;;5018262;28;20050;-52
2023/08/21 11:15:28;;;;;;;4.20;1.35;;;27.40;49.50;;;;;;5018627;28;20437;-54
2023/08/21 11:17:56;;;;;;;4.82;1.20;;;27.50;49.30;;;;;;5003805;28;20088;-54
2023/08/21 11:20:28;;;;;;;2.40;0.80;;;27.50;49.50;;;;;;5014716;28;20033;-53
2023/08/21 11:23:02;;;;;;;;;;;27.60;50.00;;;;;;5017785;28;20029;-54
2023/08/21 11:25:30;;;;;;;5.05;1.45;;;27.70;50.00;;;;;;5018894;28;19927;-54
2023/08/21 11:27:57;;;;;;;2.55;0.98;;;27.80;49.40;;;;;;5020789;28;20041;-53
2023/08/21 11:30:25;;;;;;;2.60;0.98;;;27.80;49.30;;;;;;5016728;28;20045;-53
2023/08/21 11:33:08;;;;;;;3.10;1.55;;;27.90;49.10;;;;;;5020972;28;20137;-54
2023/08/21 11:35:40;;;;;;;3.30;1.30;;;28.00;48.40;;;;;;5000834;28;20041;-54
2023/08/21 11:38:16;;;;;;;4.63;1.60;;;28.00;48.40;;;;;;5020058;28;20041;-54
2023/08/21 11:40:51;;;;;;;2.70;1.55;;;28.20;48.30;;;;;;5017935;28;20045;-54
2023/08/21 11:43:19;;;;;;;2.30;1.45;;;28.30;49.10;;;;;;5019549;28;20050;-52
2023/08/21 11:45:46;;;;;;;3.97;1.88;;;28.40;49.50;;;;;;5016968;28;20581;-54
2023/08/21 11:48:25;;;;;;;3.85;0.90;;;28.50;48.20;;;;;;5018717;28;20058;-54
2023/08/21 11:50:53;;;;;;;2.20;0.80;;;28.70;48.00;;;;;;5018427;28;20042;-54
2023/08/21 11:53:37;;;;;;;1.98;1.17;;;28.70;48.20;;;;;;5018115;28;20125;-54
2023/08/21 11:56:17;;;;;;;4.93;1.40;;;28.80;48.20;;;;;;5012995;28;20042;-54
2023/08/21 11:58:46;;;;;;;1.52;0.88;;;28.90;47.70;;;;;;5010634;28;20064;-54
2023/08/21 12:01:20;;;;;;;3.55;1.17;;;29.00;47.80;;;;;;5011648;28;20492;-54
2023/08/21 12:03:54;;;;;;;3.22;1.35;;;29.00;47.20;;;;;;5019233;28;20042;-54
2023/08/21 12:06:22;;;;;;;4.38;1.77;;;29.10;47.50;;;;;;5017686;28;20077;-54
2023/08/21 12:08:49;;;;;;;1.83;1.08;;;29.10;47.70;;;;;;5010872;28;20038;-53
2023/08/21 12:11:16;;;;;;;3.70;1.15;;;29.10;48.10;;;;;;5020336;28;20077;-54
2023/08/21 12:13:42;;;;;;;5.40;1.38;;;29.20;46.90;;;;;;5021965;28;20037;-54
2023/08/21 12:16:09;;;;;;;2.25;0.98;;;29.20;46.50;;;;;;5011743;28;20077;-54
2023/08/21 12:18:36;;;;;;;2.17;1.30;;;29.20;46.60;;;;;;5009995;28;20069;-52
2023/08/21 12:21:03;;;;;;;3.45;1.77;;;29.20;46.90;;;;;;5010749;28;20065;-54
2023/08/21 12:23:29;;;;;;;1.40;0.90;;;29.20;46.30;;;;;;5016160;28;20072;-54
2023/08/21 12:25:56;;;;;;;2.90;1.60;;;29.20;46.40;;;;;;5009838;28;20575;-53
2023/08/21 12:28:23;;;;;;;2.78;1.40;;;29.30;46.20;;;;;;5000368;28;20503;-54
2023/08/21 12:30:49;;;;;;;4.30;1.25;;;29.40;46.30;;;;;;5015486;28;20200;-54
2023/08/21 12:33:16;;;;;;;2.80;1.25;;;29.40;46.00;;;;;;5018639;28;20125;-54
2023/08/21 12:35:50;;;;;;;2.88;1.58;;;29.50;45.80;;;;;;5020201;28;20045;-54
2023/08/21 12:38:16;;;;;;;3.47;1.27;;;29.50;45.70;;;;;;5018353;28;20673;-54
2023/08/21 12:40:43;;;;;;;4.07;1.48;;;29.50;45.70;;;;;;5017985;28;20124;-52
2023/08/21 12:43:10;;;;;;;1.52;1.15;;;29.60;45.80;;;;;;5017676;28;20048;-54
2023/08/21 12:45:37;;;;;;;3.35;1.52;;;29.60;45.70;;;;;;5012405;28;20049;-53
2023/08/21 12:48:04;;;;;;;3.05;1.55;;;29.60;45.70;;;;;;4995128;28;20108;-54
2023/08/21 12:50:31;;;;;;;2.80;1.13;;;29.60;45.40;;;;;;5006036;28;20050;-53
2023/08/21 12:52:58;;;;;;;3.33;1.42;;;29.70;45.90;;;;;;5007354;28;20061;-54
2023/08/21 12:55:24;;;;;;;6.72;1.90;;;29.70;46.00;;;;;;5007990;28;20081;-54
2023/08/21 12:57:51;;;;;;;2.53;1.70;;;29.70;45.70;;;;;;5005959;28;20111;-52